createdAt,value
2022-10-29T00:00:16.315Z,5.25
2022-10-29T00:02:42.996Z,4.70
2022-10-29T00:05:09.554Z,5.05
2022-10-29T00:07:36.139Z,4.57
2022-10-29T00:10:02.837Z,4.60
2022-10-29T00:12:29.413Z,4.13
2022-10-29T00:14:58.783Z,4.00
2022-10-29T00:17:25.445Z,4.68
2022-10-29T00:19:52.069Z,3.83
2022-10-29T00:22:18.659Z,4.55
2022-10-29T00:24:45.218Z,4.43
2022-10-29T00:27:11.832Z,4.53
2022-10-29T00:29:38.447Z,5.90
2022-10-29T00:32:05.139Z,5.88
2022-10-29T00:34:31.799Z,5.38
2022-10-29T00:36:58.362Z,6.20
2022-10-29T00:39:24.928Z,5.88
2022-10-29T00:41:52.830Z,5.00
2022-10-29T00:44:20.491Z,5.35
2022-10-29T00:46:56.623Z,4.60
2022-10-29T00:49:24.797Z,4.05
2022-10-29T00:51:51.667Z,4.20
2022-10-29T00:54:18.772Z,4.53
2022-10-29T00:56:57.904Z,5.32
2022-10-29T00:59:24.724Z,4.10
2022-10-29T01:01:51.522Z,4.80
2022-10-29T01:04:18.649Z,4.65
2022-10-29T01:06:47.071Z,4.65
2022-10-29T01:09:13.950Z,4.10
2022-10-29T01:11:55.691Z,4.35
2022-10-29T01:14:48.264Z,3.95
2022-10-29T01:17:20.565Z,5.28
2022-10-29T01:19:47.131Z,4.43
2022-10-29T01:22:17.526Z,4.50
2022-10-29T01:24:56.111Z,4.63
2022-10-29T01:27:22.723Z,5.07
2022-10-29T01:30:07.431Z,5.82
2022-10-29T01:32:45.935Z,5.20
2022-10-29T01:35:18.593Z,5.95
2022-10-29T01:37:51.406Z,5.57
2022-10-29T01:40:23.886Z,5.53
2022-10-29T01:42:53.086Z,5.47
2022-10-29T01:45:23.072Z,5.93
2022-10-29T01:48:01.212Z,5.68
2022-10-29T01:50:28.632Z,4.93
2022-10-29T01:52:55.884Z,5.68
2022-10-29T01:55:27.979Z,5.15
2022-10-29T01:57:54.943Z,4.38
2022-10-29T02:00:21.949Z,5.15
2022-10-29T02:02:54.547Z,5.03
2022-10-29T02:05:27.034Z,5.20
2022-10-29T02:08:16.690Z,4.72
2022-10-29T02:10:59.731Z,4.70
2022-10-29T02:13:31.081Z,4.50
2022-10-29T02:15:58.543Z,5.18
2022-10-29T02:18:25.196Z,4.63
2022-10-29T02:20:51.888Z,4.20
2022-10-29T02:23:18.561Z,4.30
2022-10-29T02:25:46.414Z,4.32
2022-10-29T02:28:13.291Z,4.82
2022-10-29T02:30:39.986Z,4.55
2022-10-29T02:33:06.715Z,4.88
2022-10-29T02:35:33.388Z,4.93
2022-10-29T02:38:00.001Z,4.68
2022-10-29T02:40:26.539Z,5.75
2022-10-29T02:42:53.238Z,6.22
2022-10-29T02:45:20.008Z,6.57
2022-10-29T02:47:46.562Z,7.53
2022-10-29T02:50:13.281Z,7.40
2022-10-29T02:52:39.939Z,7.10
2022-10-29T02:55:06.803Z,6.03
2022-10-29T02:57:33.391Z,5.65
2022-10-29T02:59:59.979Z,6.50
2022-10-29T03:02:26.672Z,5.93
2022-10-29T03:04:53.310Z,5.47
2022-10-29T03:07:19.977Z,5.32
2022-10-29T03:09:46.542Z,5.07
2022-10-29T03:12:13.164Z,4.95
2022-10-29T03:14:39.712Z,4.82
2022-10-29T03:17:06.379Z,5.10
2022-10-29T03:19:32.968Z,5.50
2022-10-29T03:21:59.546Z,5.88
2022-10-29T03:24:26.111Z,5.43
2022-10-29T03:26:52.773Z,4.75
2022-10-29T03:29:19.428Z,5.00
2022-10-29T03:31:45.997Z,4.57
2022-10-29T03:34:12.593Z,4.70
2022-10-29T03:36:39.217Z,5.78
2022-10-29T03:39:05.827Z,6.45
2022-10-29T03:41:32.420Z,6.65
2022-10-29T03:43:59.141Z,7.10
2022-10-29T03:46:25.692Z,6.85
2022-10-29T03:48:52.329Z,6.63
2022-10-29T03:51:18.936Z,8.48
2022-10-29T03:53:45.598Z,7.25
2022-10-29T03:56:12.218Z,8.88
2022-10-29T03:58:38.883Z,8.90
2022-10-29T04:01:06.873Z,8.65
2022-10-29T04:03:34.224Z,9.70
2022-10-29T04:06:01.713Z,8.30
2022-10-29T04:08:28.387Z,8.68
2022-10-29T04:10:55.002Z,8.55
2022-10-29T04:13:21.709Z,7.45
2022-10-29T04:15:48.256Z,6.80
2022-10-29T04:18:14.868Z,6.78
2022-10-29T04:21:15.933Z,7.00
2022-10-29T04:29:01.946Z,5.95
2022-10-29T04:31:28.516Z,5.57
2022-10-29T04:33:55.790Z,6.50
2022-10-29T04:36:22.489Z,5.68
2022-10-29T04:38:50.059Z,6.28
2022-10-29T04:41:16.743Z,5.47
2022-10-29T04:43:43.372Z,7.07
2022-10-29T04:46:10.281Z,7.00
2022-10-29T04:48:37.137Z,7.57
2022-10-29T04:51:03.986Z,7.10
2022-10-29T04:53:30.739Z,7.80
2022-10-29T04:56:01.488Z,6.93
2022-10-29T04:58:28.424Z,6.93
2022-10-29T05:01:00.575Z,6.60
2022-10-29T05:03:27.303Z,7.72
2022-10-29T05:05:53.875Z,7.25
2022-10-29T05:08:21.595Z,11.35
2022-10-29T05:10:48.254Z,10.52
2022-10-29T05:13:14.900Z,10.45
2022-10-29T05:15:41.930Z,8.50
2022-10-29T05:18:09.705Z,7.55
2022-10-29T05:20:36.335Z,8.77
2022-10-29T05:23:04.233Z,8.60
2022-10-29T05:25:31.717Z,8.13
2022-10-29T05:28:05.481Z,8.35
2022-10-29T05:30:32.612Z,8.57
2022-10-29T05:32:59.311Z,8.25
2022-10-29T05:35:26.085Z,7.43
2022-10-29T05:37:53.242Z,8.15
2022-10-29T05:40:20.209Z,7.35
2022-10-29T05:42:47.486Z,7.88
2022-10-29T05:45:14.221Z,9.18
2022-10-29T05:47:41.086Z,9.63
2022-10-29T05:50:08.037Z,11.85
2022-10-29T05:52:34.751Z,9.90
2022-10-29T05:55:01.322Z,11.00
2022-10-29T05:57:28.280Z,10.20
2022-10-29T05:59:54.892Z,9.45
2022-10-29T06:02:21.711Z,12.38
2022-10-29T06:04:51.287Z,10.63
2022-10-29T06:07:17.875Z,10.13
2022-10-29T06:09:44.422Z,10.60
2022-10-29T06:12:10.982Z,11.70
2022-10-29T06:14:37.564Z,11.82
2022-10-29T06:17:04.147Z,11.15
2022-10-29T06:19:30.810Z,9.00
2022-10-29T06:22:00.320Z,10.13
2022-10-29T06:24:27.581Z,9.48
2022-10-29T06:26:54.612Z,9.77
2022-10-29T06:29:21.316Z,9.15
2022-10-29T06:31:47.987Z,9.52
2022-10-29T06:34:14.932Z,9.23
2022-10-29T06:36:41.718Z,9.75
2022-10-29T06:39:08.315Z,8.30
2022-10-29T06:41:34.918Z,9.55
2022-10-29T06:44:03.329Z,8.82
2022-10-29T06:46:30.865Z,10.00
2022-10-29T06:48:57.461Z,15.82
2022-10-29T06:51:24.078Z,11.05
2022-10-29T06:53:50.731Z,10.23
2022-10-29T06:56:17.293Z,8.93
2022-10-29T06:58:43.926Z,10.27
2022-10-29T07:01:10.644Z,10.23
2022-10-29T07:03:37.295Z,8.77
2022-10-29T07:06:05.222Z,11.15
2022-10-29T07:08:33.295Z,11.73
2022-10-29T07:11:02.774Z,10.48
2022-10-29T07:13:29.383Z,12.82
2022-10-29T07:15:55.922Z,13.00
2022-10-29T07:18:22.573Z,13.95
2022-10-29T07:20:49.171Z,9.38
2022-10-29T07:23:15.974Z,10.93
2022-10-29T07:25:42.746Z,11.82
2022-10-29T07:28:20.888Z,11.43
2022-10-29T07:30:48.508Z,10.65
2022-10-29T07:33:15.430Z,12.05
2022-10-29T07:35:42.357Z,11.15
2022-10-29T07:38:11.271Z,11.20
2022-10-29T07:40:39.328Z,11.35
2022-10-29T07:43:06.097Z,11.63
2022-10-29T07:45:33.415Z,11.88
2022-10-29T07:48:02.855Z,11.52
2022-10-29T07:50:30.541Z,12.75
2022-10-29T07:53:00.928Z,12.00
2022-10-29T07:58:01.416Z,11.65
2022-10-29T08:00:28.574Z,10.82
2022-10-29T08:02:55.534Z,10.68
2022-10-29T08:05:22.778Z,15.85
2022-10-29T08:07:49.461Z,10.65
2022-10-29T08:10:16.400Z,11.00
2022-10-29T08:12:53.079Z,11.15
2022-10-29T08:15:20.277Z,11.55
2022-10-29T08:17:46.986Z,11.00
2022-10-29T08:20:14.045Z,11.23
2022-10-29T08:22:40.628Z,12.10
2022-10-29T08:25:07.354Z,12.00
2022-10-29T08:27:34.020Z,11.52
2022-10-29T08:30:00.589Z,11.90
2022-10-29T08:32:27.210Z,11.77
2022-10-29T08:34:53.849Z,12.25
2022-10-29T08:37:20.414Z,11.15
2022-10-29T08:39:47.021Z,11.70
2022-10-29T08:42:35.197Z,10.75
2022-10-29T08:45:01.828Z,11.48
2022-10-29T08:47:30.540Z,10.82
2022-10-29T08:49:57.114Z,10.57
2022-10-29T08:52:26.541Z,10.15
2022-10-29T08:55:13.427Z,11.55
2022-10-29T08:57:43.869Z,10.35
2022-10-29T09:00:18.342Z,11.07
2022-10-29T09:02:45.077Z,12.80
2022-10-29T09:05:15.931Z,11.00
2022-10-29T09:08:21.282Z,13.30
2022-10-29T09:10:52.888Z,14.75
2022-10-29T09:13:39.693Z,10.90
2022-10-29T09:16:29.281Z,11.13
2022-10-29T09:19:30.266Z,12.63
2022-10-29T09:22:15.701Z,10.90
2022-10-29T09:25:05.038Z,11.48
2022-10-29T09:27:34.688Z,11.07
2022-10-29T09:30:01.287Z,10.77
2022-10-29T09:32:33.733Z,12.00
2022-10-29T09:35:05.942Z,12.40
2022-10-29T09:37:49.435Z,14.57
2022-10-29T09:40:36.934Z,9.90
2022-10-29T09:43:12.608Z,10.90
2022-10-29T09:45:42.978Z,10.82
2022-10-29T09:48:29.843Z,10.77
2022-10-29T09:50:59.497Z,12.10
2022-10-29T09:53:26.206Z,11.43
2022-10-29T09:55:53.882Z,10.40
2022-10-29T09:58:21.905Z,9.88
2022-10-29T10:00:48.748Z,10.32
2022-10-29T10:03:35.353Z,9.50
2022-10-29T10:06:06.082Z,10.32
2022-10-29T10:08:33.536Z,11.20
2022-10-29T10:11:08.297Z,12.77
2022-10-29T10:13:36.974Z,12.02
2022-10-29T10:16:05.224Z,10.50
2022-10-29T10:18:31.816Z,9.85
2022-10-29T10:21:04.252Z,9.70
2022-10-29T10:23:40.693Z,8.63
2022-10-29T10:26:26.712Z,7.97
2022-10-29T10:29:05.382Z,8.07
2022-10-29T10:31:32.075Z,8.32
2022-10-29T10:33:58.721Z,9.75
2022-10-29T10:36:26.442Z,9.50
2022-10-29T10:38:54.455Z,10.65
2022-10-29T10:41:31.687Z,10.27
2022-10-29T10:44:00.496Z,10.90
2022-10-29T10:46:29.273Z,11.75
2022-10-29T10:48:58.976Z,9.95
2022-10-29T10:51:27.883Z,9.50
2022-10-29T10:53:54.724Z,9.10
2022-10-29T10:56:22.374Z,8.80
2022-10-29T10:58:54.945Z,8.73
2022-10-29T11:01:24.637Z,8.98
2022-10-29T11:04:11.678Z,9.60
2022-10-29T11:06:40.569Z,8.88
2022-10-29T11:09:19.775Z,9.05
2022-10-29T11:12:06.011Z,9.30
2022-10-29T11:14:34.628Z,8.30
2022-10-29T11:17:02.268Z,7.93
2022-10-29T11:19:35.818Z,8.20
2022-10-29T11:22:07.839Z,8.43
2022-10-29T11:24:41.396Z,8.52
2022-10-29T11:27:27.590Z,8.05
2022-10-29T11:29:59.176Z,8.05
2022-10-29T11:32:30.265Z,9.48
2022-10-29T11:34:56.939Z,9.05
2022-10-29T11:37:31.308Z,8.43
2022-10-29T11:40:16.206Z,8.13
2022-10-29T11:42:42.857Z,7.50
2022-10-29T11:45:15.240Z,10.07
2022-10-29T11:48:03.396Z,8.38
2022-10-29T11:50:53.496Z,8.50
2022-10-29T11:53:43.301Z,8.82
2022-10-29T11:56:14.559Z,8.38
2022-10-29T11:58:48.081Z,9.57
2022-10-29T12:01:20.055Z,8.73
2022-10-29T12:03:53.610Z,8.73
2022-10-29T12:06:33.227Z,8.63
2022-10-29T12:09:25.541Z,8.25
2022-10-29T12:11:52.072Z,9.10
2022-10-29T12:14:18.626Z,9.02
2022-10-29T12:16:45.194Z,9.07
2022-10-29T12:19:30.672Z,8.77
2022-10-29T12:22:00.374Z,8.82
2022-10-29T12:24:45.761Z,8.95
2022-10-29T12:27:14.361Z,8.82
2022-10-29T12:29:59.674Z,9.60
2022-10-29T12:32:31.973Z,8.50
2022-10-29T12:35:03.221Z,8.52
2022-10-29T12:37:42.173Z,9.13
2022-10-29T12:40:17.999Z,9.32
2022-10-29T12:42:46.063Z,10.95
2022-10-29T12:45:12.798Z,12.48
2022-10-29T12:47:45.529Z,12.15
2022-10-29T12:50:35.349Z,10.50
2022-10-29T12:53:01.892Z,10.93
2022-10-29T12:55:28.804Z,10.85
2022-10-29T12:57:55.422Z,12.35
2022-10-29T13:00:40.878Z,12.35
2022-10-29T13:03:07.956Z,12.15
2022-10-29T13:05:36.513Z,11.18
2022-10-29T13:08:03.052Z,8.05
2022-10-29T13:10:35.502Z,5.47
2022-10-29T13:13:05.506Z,5.93
2022-10-29T13:15:34.359Z,8.93
2022-10-29T13:18:04.761Z,7.88
2022-10-29T13:20:36.347Z,5.97
2022-10-29T13:23:05.308Z,9.00
2022-10-29T13:25:34.923Z,5.38
2022-10-29T13:28:21.461Z,5.50
2022-10-29T13:30:48.102Z,8.20
2022-10-29T13:33:23.821Z,9.45
2022-10-29T13:35:57.397Z,11.82
2022-10-29T13:38:33.139Z,12.07
2022-10-29T13:41:07.609Z,12.32
2022-10-29T13:43:34.395Z,13.05
2022-10-29T13:46:06.703Z,13.15
2022-10-29T13:48:36.625Z,15.57
2022-10-29T13:51:05.386Z,13.95
2022-10-29T13:53:55.265Z,14.43
2022-10-29T13:56:36.137Z,14.30
2022-10-29T13:59:04.567Z,14.48
2022-10-29T14:01:33.747Z,13.75
2022-10-29T14:04:22.718Z,13.32
2022-10-29T14:06:50.596Z,12.73
2022-10-29T14:09:22.599Z,12.93
2022-10-29T14:11:58.104Z,13.40
2022-10-29T14:14:31.164Z,12.82
2022-10-29T14:17:11.485Z,12.63
2022-10-29T14:19:38.160Z,12.57
2022-10-29T14:22:15.093Z,12.57
2022-10-29T14:24:41.944Z,12.88
2022-10-29T14:27:09.508Z,12.15
2022-10-29T14:29:36.184Z,11.63
2022-10-29T14:32:06.652Z,10.63
2022-10-29T14:34:33.532Z,11.38
2022-10-29T14:37:11.325Z,11.40
2022-10-29T14:39:56.910Z,12.88
2022-10-29T14:42:24.753Z,11.82
2022-10-29T14:44:54.405Z,10.55
2022-10-29T14:47:32.252Z,11.38
2022-10-29T14:50:02.902Z,10.02
2022-10-29T14:52:29.609Z,10.02
2022-10-29T14:54:57.931Z,10.00
2022-10-29T14:57:26.073Z,9.63
2022-10-29T14:59:54.246Z,8.63
2022-10-29T15:02:37.568Z,9.05
2022-10-29T15:05:25.781Z,6.05
2022-10-29T15:08:03.277Z,5.20
2022-10-29T15:10:29.976Z,4.97
2022-10-29T15:12:57.599Z,4.05
2022-10-29T15:15:25.733Z,4.57
2022-10-29T15:18:06.826Z,5.32
2022-10-29T15:20:44.729Z,4.15
2022-10-29T15:23:26.290Z,4.15
2022-10-29T15:25:57.812Z,4.57
2022-10-29T15:28:26.223Z,4.50
2022-10-29T15:30:54.213Z,4.50
2022-10-29T15:33:30.198Z,4.30
2022-10-29T15:36:00.826Z,3.97
2022-10-29T15:38:30.479Z,3.58
2022-10-29T15:41:17.015Z,3.97
2022-10-29T15:43:51.448Z,3.78
2022-10-29T15:46:25.132Z,3.88
2022-10-29T15:48:52.109Z,3.88
2022-10-29T15:51:21.752Z,4.28
2022-10-29T15:53:48.431Z,4.07
2022-10-29T15:56:15.248Z,4.40
2022-10-29T15:58:41.866Z,3.67
2022-10-29T16:01:08.817Z,3.65
2022-10-29T16:03:39.566Z,3.67
2022-10-29T16:06:39.356Z,4.03
2022-10-29T16:09:07.473Z,4.38
2022-10-29T16:11:34.741Z,4.28
2022-10-29T16:14:03.723Z,3.78
2022-10-29T16:16:34.114Z,3.88
2022-10-29T16:19:06.099Z,4.03
2022-10-29T16:21:32.853Z,3.38
2022-10-29T16:23:59.509Z,3.30
2022-10-29T16:26:26.807Z,3.30
2022-10-29T16:28:53.697Z,4.57
2022-10-29T16:31:22.201Z,3.00
2022-10-29T16:33:49.484Z,3.38
2022-10-29T16:36:16.447Z,3.45
2022-10-29T16:38:45.592Z,3.63
2022-10-29T16:41:13.250Z,3.58
2022-10-29T16:43:40.209Z,3.03
2022-10-29T16:46:07.261Z,3.70
2022-10-29T16:48:34.215Z,4.00
2022-10-29T16:51:03.997Z,3.20
2022-10-29T16:53:32.403Z,3.25
2022-10-29T16:55:59.123Z,3.08
2022-10-29T16:58:25.902Z,4.00
2022-10-29T17:01:01.347Z,2.92
2022-10-29T17:03:28.098Z,3.67
2022-10-29T17:05:54.572Z,3.50
2022-10-29T17:08:21.800Z,4.38
2022-10-29T17:10:48.395Z,4.22
2022-10-29T17:13:15.036Z,4.10
2022-10-29T17:15:44.203Z,5.43
2022-10-29T17:18:13.830Z,8.60
2022-10-29T17:20:40.701Z,11.00
2022-10-29T17:23:07.621Z,7.68
2022-10-29T17:25:41.826Z,6.03
2022-10-29T17:28:08.498Z,4.50
2022-10-29T17:30:35.110Z,5.22
2022-10-29T17:33:02.860Z,3.90
2022-10-29T17:35:29.465Z,2.90
2022-10-29T17:37:57.713Z,3.08
2022-10-29T17:40:24.482Z,3.70
2022-10-29T17:42:51.803Z,3.63
2022-10-29T17:45:22.740Z,3.63
2022-10-29T17:47:53.924Z,3.70
2022-10-29T17:50:26.589Z,3.78
2022-10-29T17:52:54.081Z,3.72
2022-10-29T17:55:22.938Z,3.45
2022-10-29T17:57:49.558Z,3.50
2022-10-29T18:00:16.430Z,3.88
2022-10-29T18:02:43.267Z,3.30
2022-10-29T18:05:14.591Z,3.00
2022-10-29T18:07:42.651Z,2.97
2022-10-29T18:10:18.748Z,3.88
2022-10-29T18:13:01.557Z,4.07
2022-10-29T18:15:32.865Z,4.07
2022-10-29T18:18:00.706Z,3.42
2022-10-29T18:20:29.532Z,3.22
2022-10-29T18:22:57.026Z,3.83
2022-10-29T18:25:28.040Z,3.03
2022-10-29T18:27:55.768Z,2.88
2022-10-29T18:30:25.563Z,3.13
2022-10-29T18:32:52.177Z,3.47
2022-10-29T18:35:19.016Z,2.78
2022-10-29T18:37:46.027Z,2.85
2022-10-29T18:40:13.136Z,3.65
2022-10-29T18:42:39.836Z,2.95
2022-10-29T18:45:06.796Z,3.20
2022-10-29T18:47:36.283Z,2.92
2022-10-29T18:50:03.078Z,3.20
2022-10-29T18:52:29.626Z,3.55
2022-10-29T18:54:56.255Z,3.63
2022-10-29T18:57:25.943Z,3.08
2022-10-29T19:00:17.651Z,3.30
2022-10-29T19:06:02.520Z,3.50
2022-10-29T19:09:37.402Z,3.70
2022-10-29T19:12:14.818Z,3.90
2022-10-29T19:14:58.311Z,3.40
2022-10-29T19:17:26.265Z,3.80
2022-10-29T19:19:52.887Z,3.92
2022-10-29T19:22:19.814Z,3.58
2022-10-29T19:24:46.428Z,3.90
2022-10-29T19:27:13.132Z,4.03
2022-10-29T19:29:39.813Z,3.50
2022-10-29T19:32:06.509Z,3.67
2022-10-29T19:34:33.143Z,3.38
2022-10-29T19:37:02.634Z,3.97
2022-10-29T19:39:29.374Z,3.85
2022-10-29T19:41:56.005Z,4.75
2022-10-29T19:44:22.689Z,4.07
2022-10-29T19:46:49.270Z,3.55
2022-10-29T19:49:18.595Z,4.03
2022-10-29T19:51:48.261Z,3.40
2022-10-29T19:54:14.924Z,3.25
2022-10-29T19:56:41.565Z,3.60
2022-10-29T19:59:09.506Z,3.95
2022-10-29T20:01:38.390Z,3.58
2022-10-29T20:04:05.196Z,3.28
2022-10-29T20:06:31.834Z,3.75
2022-10-29T20:08:58.413Z,4.22
2022-10-29T20:11:25.053Z,3.40
2022-10-29T20:13:51.965Z,3.67
2022-10-29T20:16:19.886Z,3.67
2022-10-29T20:18:47.252Z,3.92
2022-10-29T20:21:14.021Z,3.58
2022-10-29T20:23:40.947Z,4.28
2022-10-29T20:26:07.996Z,3.10
2022-10-29T20:28:34.589Z,3.30
2022-10-29T20:31:14.545Z,3.92
2022-10-29T20:33:41.162Z,3.45
2022-10-29T20:36:10.964Z,3.65
2022-10-29T20:38:43.395Z,4.22
2022-10-29T20:41:11.156Z,3.35
2022-10-29T20:43:40.600Z,3.85
2022-10-29T20:46:12.065Z,4.53
2022-10-29T20:48:58.828Z,3.72
2022-10-29T20:51:29.021Z,3.50
2022-10-29T20:53:59.031Z,4.45
2022-10-29T20:56:26.766Z,4.10
2022-10-29T20:59:02.548Z,4.32
2022-10-29T21:01:33.623Z,4.38
2022-10-29T21:04:00.612Z,4.00
2022-10-29T21:06:27.313Z,4.10
2022-10-29T21:08:53.971Z,4.15
2022-10-29T21:11:21.083Z,4.07
2022-10-29T21:13:48.201Z,4.30
2022-10-29T21:16:28.659Z,4.47
2022-10-29T21:18:56.382Z,4.00
2022-10-29T21:21:24.531Z,2.95
2022-10-29T21:23:51.165Z,3.65
2022-10-29T21:26:19.470Z,3.40
2022-10-29T21:28:47.130Z,3.88
2022-10-29T21:31:13.854Z,3.42
2022-10-29T21:33:40.643Z,3.35
2022-10-29T21:36:07.586Z,2.72
2022-10-29T21:38:37.258Z,3.90
2022-10-29T21:41:03.912Z,4.10
2022-10-29T21:43:30.521Z,3.88
2022-10-29T21:45:57.215Z,3.80
2022-10-29T21:48:27.729Z,3.42
2022-10-29T21:51:01.962Z,3.72
2022-10-29T21:53:28.964Z,2.72
2022-10-29T21:55:59.228Z,3.50
2022-10-29T21:58:26.456Z,3.45
2022-10-29T22:01:01.013Z,3.85
2022-10-29T22:03:29.948Z,3.33
2022-10-29T22:06:12.153Z,3.40
2022-10-29T22:08:46.778Z,3.28
2022-10-29T22:11:13.901Z,3.33
2022-10-29T22:13:40.480Z,4.35
2022-10-29T22:16:07.952Z,4.10
2022-10-29T22:18:34.578Z,4.35
2022-10-29T22:21:03.878Z,4.60
2022-10-29T22:23:33.793Z,4.03
2022-10-29T22:26:00.559Z,3.83
2022-10-29T22:28:27.170Z,4.63
2022-10-29T22:30:57.331Z,3.85
2022-10-29T22:33:23.893Z,3.85
2022-10-29T22:35:50.451Z,3.83
2022-10-29T22:38:16.990Z,3.88
2022-10-29T22:40:43.563Z,3.85
2022-10-29T22:43:11.826Z,3.85
2022-10-29T22:45:38.395Z,3.38
2022-10-29T22:48:05.058Z,4.05
2022-10-29T22:50:31.625Z,3.42
2022-10-29T22:52:58.445Z,3.80
2022-10-29T22:55:25.359Z,4.18
2022-10-29T22:57:51.942Z,4.10
2022-10-29T23:00:18.612Z,3.40
2022-10-29T23:02:45.245Z,4.10
2022-10-29T23:05:11.966Z,3.70
2022-10-29T23:07:38.564Z,4.07
2022-10-29T23:10:05.458Z,3.85
2022-10-29T23:12:32.082Z,3.50
2022-10-29T23:14:58.742Z,4.60
2022-10-29T23:17:25.371Z,3.85
2022-10-29T23:19:56.164Z,4.20
2022-10-29T23:22:24.819Z,3.90
2022-10-29T23:24:54.032Z,3.97
2022-10-29T23:27:20.635Z,3.83
2022-10-29T23:29:47.261Z,4.05
2022-10-29T23:32:13.896Z,4.05
2022-10-29T23:34:40.521Z,3.95
2022-10-29T23:37:09.815Z,4.47
2022-10-29T23:39:37.027Z,3.95
2022-10-29T23:42:03.722Z,4.07
2022-10-29T23:44:30.299Z,3.90
2022-10-29T23:46:56.922Z,4.07
2022-10-29T23:49:23.533Z,3.70
2022-10-29T23:51:50.122Z,3.70
2022-10-29T23:54:16.710Z,4.60
2022-10-29T23:56:43.266Z,5.03
2022-10-29T23:59:09.885Z,4.03
